sensor_id;sensor_type;location;lat;lon;timestamp;P1;durP1;ratioP1;P2;durP2;ratioP2
14094;SDS011;18096;48.142;16.290;2024-03-08T00:01:59;46.23;;;17.67;;
14094;SDS011;18096;48.142;16.290;2024-03-08T00:04:25;40.93;;;15.80;;
14094;SDS011;18096;48.142;16.290;2024-03-08T00:06:51;43.87;;;18.77;;
14094;SDS011;18096;48.142;16.290;2024-03-08T00:09:17;35.27;;;15.47;;
14094;SDS011;18096;48.142;16.290;2024-03-08T00:11:42;43.10;;;18.17;;
14094;SDS011;18096;48.142;16.290;2024-03-08T00:14:08;46.07;;;17.00;;
14094;SDS011;18096;48.142;16.290;2024-03-08T00:16:34;51.37;;;17.50;;
14094;SDS011;18096;48.142;16.290;2024-03-08T00:19:00;34.47;;;14.03;;
14094;SDS011;18096;48.142;16.290;2024-03-08T00:21:26;40.23;;;13.90;;
14094;SDS011;18096;48.142;16.290;2024-03-08T00:23:52;35.23;;;14.77;;
14094;SDS011;18096;48.142;16.290;2024-03-08T00:26:21;37.23;;;16.73;;
14094;SDS011;18096;48.142;16.290;2024-03-08T00:28:49;40.73;;;14.60;;
14094;SDS011;18096;48.142;16.290;2024-03-08T00:31:15;46.67;;;17.17;;
14094;SDS011;18096;48.142;16.290;2024-03-08T00:33:43;35.80;;;15.60;;
14094;SDS011;18096;48.142;16.290;2024-03-08T00:36:09;47.20;;;17.70;;
14094;SDS011;18096;48.142;16.290;2024-03-08T00:38:34;45.03;;;16.70;;
14094;SDS011;18096;48.142;16.290;2024-03-08T00:41:00;42.67;;;16.63;;
14094;SDS011;18096;48.142;16.290;2024-03-08T00:43:27;37.40;;;16.10;;
14094;SDS011;18096;48.142;16.290;2024-03-08T00:45:52;32.03;;;14.17;;
14094;SDS011;18096;48.142;16.290;2024-03-08T00:48:18;44.63;;;16.40;;
14094;SDS011;18096;48.142;16.290;2024-03-08T00:50:44;43.83;;;16.17;;
14094;SDS011;18096;48.142;16.290;2024-03-08T00:53:11;36.97;;;15.70;;
14094;SDS011;18096;48.142;16.290;2024-03-08T00:55:37;37.30;;;16.77;;
14094;SDS011;18096;48.142;16.290;2024-03-08T00:58:03;37.53;;;16.37;;
14094;SDS011;18096;48.142;16.290;2024-03-08T01:00:29;26.93;;;14.07;;
14094;SDS011;18096;48.142;16.290;2024-03-08T01:02:55;37.17;;;15.60;;
14094;SDS011;18096;48.142;16.290;2024-03-08T01:05:21;42.07;;;17.10;;
14094;SDS011;18096;48.142;16.290;2024-03-08T01:07:48;43.47;;;16.07;;
14094;SDS011;18096;48.142;16.290;2024-03-08T01:10:14;42.10;;;17.17;;
14094;SDS011;18096;48.142;16.290;2024-03-08T01:12:40;34.63;;;15.30;;
14094;SDS011;18096;48.142;16.290;2024-03-08T01:15:08;48.90;;;16.83;;
14094;SDS011;18096;48.142;16.290;2024-03-08T01:17:35;39.13;;;16.17;;
14094;SDS011;18096;48.142;16.290;2024-03-08T01:20:01;53.20;;;18.43;;
14094;SDS011;18096;48.142;16.290;2024-03-08T01:22:28;31.97;;;15.03;;
14094;SDS011;18096;48.142;16.290;2024-03-08T01:24:55;39.70;;;17.60;;
14094;SDS011;18096;48.142;16.290;2024-03-08T01:27:21;37.93;;;16.97;;
14094;SDS011;18096;48.142;16.290;2024-03-08T01:29:47;38.93;;;14.10;;
14094;SDS011;18096;48.142;16.290;2024-03-08T01:32:12;37.93;;;14.27;;
14094;SDS011;18096;48.142;16.290;2024-03-08T01:34:38;35.67;;;13.80;;
14094;SDS011;18096;48.142;16.290;2024-03-08T01:37:04;35.03;;;18.57;;
14094;SDS011;18096;48.142;16.290;2024-03-08T01:39:30;40.07;;;17.73;;
14094;SDS011;18096;48.142;16.290;2024-03-08T01:41:57;45.83;;;15.50;;
14094;SDS011;18096;48.142;16.290;2024-03-08T01:44:23;42.93;;;15.90;;
14094;SDS011;18096;48.142;16.290;2024-03-08T01:46:49;41.00;;;17.43;;
14094;SDS011;18096;48.142;16.290;2024-03-08T01:49:17;38.97;;;16.40;;
14094;SDS011;18096;48.142;16.290;2024-03-08T01:51:45;33.90;;;15.07;;
14094;SDS011;18096;48.142;16.290;2024-03-08T01:54:12;32.40;;;14.27;;
14094;SDS011;18096;48.142;16.290;2024-03-08T01:56:40;36.53;;;15.93;;
14094;SDS011;18096;48.142;16.290;2024-03-08T01:59:05;45.20;;;17.00;;
14094;SDS011;18096;48.142;16.290;2024-03-08T02:01:32;44.57;;;16.80;;
14094;SDS011;18096;48.142;16.290;2024-03-08T02:03:59;39.73;;;16.60;;
14094;SDS011;18096;48.142;16.290;2024-03-08T02:06:25;30.70;;;14.90;;
14094;SDS011;18096;48.142;16.290;2024-03-08T02:08:51;40.63;;;17.87;;
14094;SDS011;18096;48.142;16.290;2024-03-08T02:11:17;44.50;;;16.37;;
14094;SDS011;18096;48.142;16.290;2024-03-08T02:13:44;39.47;;;16.10;;
14094;SDS011;18096;48.142;16.290;2024-03-08T02:16:09;35.90;;;16.27;;
14094;SDS011;18096;48.142;16.290;2024-03-08T02:18:35;41.67;;;17.50;;
14094;SDS011;18096;48.142;16.290;2024-03-08T02:21:02;37.00;;;17.30;;
14094;SDS011;18096;48.142;16.290;2024-03-08T02:23:29;30.23;;;14.87;;
14094;SDS011;18096;48.142;16.290;2024-03-08T02:25:55;47.83;;;18.67;;
14094;SDS011;18096;48.142;16.290;2024-03-08T02:28:21;42.97;;;16.20;;
14094;SDS011;18096;48.142;16.290;2024-03-08T02:30:48;41.73;;;17.57;;
14094;SDS011;18096;48.142;16.290;2024-03-08T02:33:15;34.07;;;15.27;;
14094;SDS011;18096;48.142;16.290;2024-03-08T02:35:42;38.60;;;17.70;;
14094;SDS011;18096;48.142;16.290;2024-03-08T02:38:12;36.87;;;16.90;;
14094;SDS011;18096;48.142;16.290;2024-03-08T02:40:38;41.73;;;14.20;;
14094;SDS011;18096;48.142;16.290;2024-03-08T02:43:04;40.40;;;15.50;;
14094;SDS011;18096;48.142;16.290;2024-03-08T02:45:30;45.23;;;17.53;;
14094;SDS011;18096;48.142;16.290;2024-03-08T02:47:55;47.33;;;19.37;;
14094;SDS011;18096;48.142;16.290;2024-03-08T02:50:21;44.53;;;15.20;;
14094;SDS011;18096;48.142;16.290;2024-03-08T02:52:47;35.73;;;14.60;;
14094;SDS011;18096;48.142;16.290;2024-03-08T02:55:13;39.90;;;15.47;;
14094;SDS011;18096;48.142;16.290;2024-03-08T02:57:42;49.80;;;17.40;;
14094;SDS011;18096;48.142;16.290;2024-03-08T03:00:08;43.93;;;15.27;;
14094;SDS011;18096;48.142;16.290;2024-03-08T03:02:35;37.20;;;16.10;;
14094;SDS011;18096;48.142;16.290;2024-03-08T03:05:02;39.90;;;14.57;;
14094;SDS011;18096;48.142;16.290;2024-03-08T03:07:31;64.63;;;16.57;;
14094;SDS011;18096;48.142;16.290;2024-03-08T03:10:00;47.73;;;17.10;;
14094;SDS011;18096;48.142;16.290;2024-03-08T03:12:27;39.00;;;17.67;;
14094;SDS011;18096;48.142;16.290;2024-03-08T03:14:53;45.83;;;16.60;;
14094;SDS011;18096;48.142;16.290;2024-03-08T03:17:18;55.53;;;16.77;;
14094;SDS011;18096;48.142;16.290;2024-03-08T03:19:45;40.00;;;15.27;;
14094;SDS011;18096;48.142;16.290;2024-03-08T03:22:11;32.33;;;14.03;;
14094;SDS011;18096;48.142;16.290;2024-03-08T03:24:37;55.77;;;17.53;;
14094;SDS011;18096;48.142;16.290;2024-03-08T03:27:06;46.03;;;16.70;;
14094;SDS011;18096;48.142;16.290;2024-03-08T03:29:39;40.87;;;16.03;;
14094;SDS011;18096;48.142;16.290;2024-03-08T03:32:07;39.63;;;18.00;;
14094;SDS011;18096;48.142;16.290;2024-03-08T03:34:33;34.70;;;16.33;;
14094;SDS011;18096;48.142;16.290;2024-03-08T03:37:03;41.50;;;16.63;;
14094;SDS011;18096;48.142;16.290;2024-03-08T03:39:29;49.20;;;15.50;;
14094;SDS011;18096;48.142;16.290;2024-03-08T03:41:59;54.47;;;17.40;;
14094;SDS011;18096;48.142;16.290;2024-03-08T03:44:27;36.10;;;16.70;;
14094;SDS011;18096;48.142;16.290;2024-03-08T03:46:53;45.20;;;16.07;;
14094;SDS011;18096;48.142;16.290;2024-03-08T03:49:20;37.53;;;15.30;;
14094;SDS011;18096;48.142;16.290;2024-03-08T03:51:46;46.03;;;16.23;;
14094;SDS011;18096;48.142;16.290;2024-03-08T03:54:12;39.57;;;17.27;;
14094;SDS011;18096;48.142;16.290;2024-03-08T03:56:38;41.03;;;16.13;;
14094;SDS011;18096;48.142;16.290;2024-03-08T03:59:05;39.60;;;16.90;;
14094;SDS011;18096;48.142;16.290;2024-03-08T04:01:31;48.70;;;18.30;;
14094;SDS011;18096;48.142;16.290;2024-03-08T04:03:58;40.73;;;15.37;;
14094;SDS011;18096;48.142;16.290;2024-03-08T04:06:23;46.63;;;16.30;;
14094;SDS011;18096;48.142;16.290;2024-03-08T04:08:49;37.17;;;14.60;;
14094;SDS011;18096;48.142;16.290;2024-03-08T04:11:15;48.13;;;16.13;;
14094;SDS011;18096;48.142;16.290;2024-03-08T04:13:41;47.90;;;15.53;;
14094;SDS011;18096;48.142;16.290;2024-03-08T04:16:07;40.90;;;16.20;;
14094;SDS011;18096;48.142;16.290;2024-03-08T04:18:34;39.70;;;18.83;;
14094;SDS011;18096;48.142;16.290;2024-03-08T04:21:03;45.67;;;18.13;;
14094;SDS011;18096;48.142;16.290;2024-03-08T04:23:31;42.23;;;16.70;;
14094;SDS011;18096;48.142;16.290;2024-03-08T04:26:00;33.00;;;15.37;;
14094;SDS011;18096;48.142;16.290;2024-03-08T04:28:25;50.20;;;19.23;;
14094;SDS011;18096;48.142;16.290;2024-03-08T04:30:51;50.13;;;19.60;;
14094;SDS011;18096;48.142;16.290;2024-03-08T04:33:17;34.13;;;14.93;;
14094;SDS011;18096;48.142;16.290;2024-03-08T04:35:43;37.80;;;16.97;;
14094;SDS011;18096;48.142;16.290;2024-03-08T04:38:11;41.07;;;14.93;;
14094;SDS011;18096;48.142;16.290;2024-03-08T04:40:36;39.40;;;15.27;;
14094;SDS011;18096;48.142;16.290;2024-03-08T04:43:02;41.80;;;17.20;;
14094;SDS011;18096;48.142;16.290;2024-03-08T04:45:28;40.10;;;14.60;;
14094;SDS011;18096;48.142;16.290;2024-03-08T04:47:53;40.53;;;17.73;;
14094;SDS011;18096;48.142;16.290;2024-03-08T04:50:19;41.33;;;17.13;;
14094;SDS011;18096;48.142;16.290;2024-03-08T04:52:44;39.73;;;16.00;;
14094;SDS011;18096;48.142;16.290;2024-03-08T04:55:11;43.50;;;15.73;;
14094;SDS011;18096;48.142;16.290;2024-03-08T04:57:37;35.93;;;16.00;;
14094;SDS011;18096;48.142;16.290;2024-03-08T05:00:03;47.40;;;18.90;;
14094;SDS011;18096;48.142;16.290;2024-03-08T05:02:38;37.53;;;13.70;;
14094;SDS011;18096;48.142;16.290;2024-03-08T05:05:07;38.80;;;17.03;;
14094;SDS011;18096;48.142;16.290;2024-03-08T05:07:34;39.07;;;14.40;;
14094;SDS011;18096;48.142;16.290;2024-03-08T05:10:00;49.80;;;16.60;;
14094;SDS011;18096;48.142;16.290;2024-03-08T05:12:27;43.13;;;16.37;;
14094;SDS011;18096;48.142;16.290;2024-03-08T05:14:53;42.17;;;18.33;;
14094;SDS011;18096;48.142;16.290;2024-03-08T05:17:18;39.40;;;17.87;;
14094;SDS011;18096;48.142;16.290;2024-03-08T05:19:44;44.30;;;15.57;;
14094;SDS011;18096;48.142;16.290;2024-03-08T05:22:10;45.50;;;17.80;;
14094;SDS011;18096;48.142;16.290;2024-03-08T05:24:36;45.27;;;18.07;;
14094;SDS011;18096;48.142;16.290;2024-03-08T05:27:01;43.33;;;18.67;;
14094;SDS011;18096;48.142;16.290;2024-03-08T05:29:28;42.53;;;16.17;;
14094;SDS011;18096;48.142;16.290;2024-03-08T05:31:54;44.80;;;17.63;;
14094;SDS011;18096;48.142;16.290;2024-03-08T05:34:21;30.87;;;15.27;;
14094;SDS011;18096;48.142;16.290;2024-03-08T05:36:47;35.63;;;14.60;;
14094;SDS011;18096;48.142;16.290;2024-03-08T05:39:15;50.00;;;16.13;;
14094;SDS011;18096;48.142;16.290;2024-03-08T05:41:42;33.00;;;16.37;;
14094;SDS011;18096;48.142;16.290;2024-03-08T05:44:08;36.07;;;15.90;;
14094;SDS011;18096;48.142;16.290;2024-03-08T05:46:34;43.17;;;18.13;;
14094;SDS011;18096;48.142;16.290;2024-03-08T05:49:06;38.53;;;15.50;;
14094;SDS011;18096;48.142;16.290;2024-03-08T05:51:35;36.20;;;14.63;;
14094;SDS011;18096;48.142;16.290;2024-03-08T05:54:02;46.67;;;17.67;;
14094;SDS011;18096;48.142;16.290;2024-03-08T05:56:37;40.13;;;15.63;;
14094;SDS011;18096;48.142;16.290;2024-03-08T05:59:07;55.97;;;17.03;;
14094;SDS011;18096;48.142;16.290;2024-03-08T06:01:33;46.87;;;17.00;;
14094;SDS011;18096;48.142;16.290;2024-03-08T06:04:01;34.13;;;15.73;;
14094;SDS011;18096;48.142;16.290;2024-03-08T06:06:28;37.60;;;15.60;;
14094;SDS011;18096;48.142;16.290;2024-03-08T06:08:54;36.17;;;16.53;;
14094;SDS011;18096;48.142;16.290;2024-03-08T06:11:21;55.10;;;17.97;;
14094;SDS011;18096;48.142;16.290;2024-03-08T06:13:47;33.80;;;15.13;;
14094;SDS011;18096;48.142;16.290;2024-03-08T06:16:14;45.87;;;16.17;;
14094;SDS011;18096;48.142;16.290;2024-03-08T06:18:40;42.13;;;15.70;;
14094;SDS011;18096;48.142;16.290;2024-03-08T06:21:06;36.47;;;14.73;;
14094;SDS011;18096;48.142;16.290;2024-03-08T06:23:41;33.50;;;16.60;;
14094;SDS011;18096;48.142;16.290;2024-03-08T06:26:09;43.03;;;19.00;;
14094;SDS011;18096;48.142;16.290;2024-03-08T06:28:34;47.17;;;17.17;;
14094;SDS011;18096;48.142;16.290;2024-03-08T06:31:00;61.53;;;17.10;;
14094;SDS011;18096;48.142;16.290;2024-03-08T06:33:27;42.00;;;19.37;;
14094;SDS011;18096;48.142;16.290;2024-03-08T06:35:59;39.63;;;16.33;;
14094;SDS011;18096;48.142;16.290;2024-03-08T06:38:24;40.03;;;16.03;;
14094;SDS011;18096;48.142;16.290;2024-03-08T06:40:50;40.30;;;16.03;;
14094;SDS011;18096;48.142;16.290;2024-03-08T06:43:17;46.23;;;15.83;;
14094;SDS011;18096;48.142;16.290;2024-03-08T06:45:43;35.00;;;16.30;;
14094;SDS011;18096;48.142;16.290;2024-03-08T06:48:13;45.73;;;15.23;;
14094;SDS011;18096;48.142;16.290;2024-03-08T06:50:40;38.43;;;15.70;;
14094;SDS011;18096;48.142;16.290;2024-03-08T06:53:05;49.87;;;18.30;;
14094;SDS011;18096;48.142;16.290;2024-03-08T06:55:31;51.60;;;17.40;;
14094;SDS011;18096;48.142;16.290;2024-03-08T06:57:58;51.87;;;18.50;;
14094;SDS011;18096;48.142;16.290;2024-03-08T07:00:23;49.40;;;19.63;;
14094;SDS011;18096;48.142;16.290;2024-03-08T07:02:52;41.13;;;15.53;;
14094;SDS011;18096;48.142;16.290;2024-03-08T07:05:18;46.93;;;18.27;;
14094;SDS011;18096;48.142;16.290;2024-03-08T07:07:44;40.77;;;16.50;;
14094;SDS011;18096;48.142;16.290;2024-03-08T07:10:13;43.93;;;15.57;;
14094;SDS011;18096;48.142;16.290;2024-03-08T07:12:40;37.27;;;16.13;;
14094;SDS011;18096;48.142;16.290;2024-03-08T07:15:06;39.70;;;16.90;;
14094;SDS011;18096;48.142;16.290;2024-03-08T07:17:32;40.87;;;16.53;;
14094;SDS011;18096;48.142;16.290;2024-03-08T07:20:00;46.30;;;16.13;;
14094;SDS011;18096;48.142;16.290;2024-03-08T07:22:32;41.07;;;16.70;;
14094;SDS011;18096;48.142;16.290;2024-03-08T07:24:58;40.33;;;17.07;;
14094;SDS011;18096;48.142;16.290;2024-03-08T07:27:44;38.57;;;15.27;;
14094;SDS011;18096;48.142;16.290;2024-03-08T07:30:11;44.47;;;20.23;;
14094;SDS011;18096;48.142;16.290;2024-03-08T07:32:37;38.20;;;16.00;;
14094;SDS011;18096;48.142;16.290;2024-03-08T07:35:03;36.47;;;14.67;;
14094;SDS011;18096;48.142;16.290;2024-03-08T07:37:29;41.17;;;15.27;;
14094;SDS011;18096;48.142;16.290;2024-03-08T07:39:55;33.10;;;15.60;;
14094;SDS011;18096;48.142;16.290;2024-03-08T07:42:21;52.33;;;18.30;;
14094;SDS011;18096;48.142;16.290;2024-03-08T07:44:47;53.77;;;19.17;;
14094;SDS011;18096;48.142;16.290;2024-03-08T07:47:15;58.93;;;18.40;;
14094;SDS011;18096;48.142;16.290;2024-03-08T07:49:42;49.20;;;18.60;;
14094;SDS011;18096;48.142;16.290;2024-03-08T07:52:09;43.97;;;16.50;;
14094;SDS011;18096;48.142;16.290;2024-03-08T07:54:40;45.23;;;19.20;;
14094;SDS011;18096;48.142;16.290;2024-03-08T07:57:06;51.33;;;17.70;;
14094;SDS011;18096;48.142;16.290;2024-03-08T07:59:32;54.90;;;18.00;;
14094;SDS011;18096;48.142;16.290;2024-03-08T08:01:58;53.80;;;18.80;;
14094;SDS011;18096;48.142;16.290;2024-03-08T08:04:24;41.03;;;18.37;;
14094;SDS011;18096;48.142;16.290;2024-03-08T08:06:51;49.63;;;19.50;;
14094;SDS011;18096;48.142;16.290;2024-03-08T08:09:17;53.97;;;20.50;;
14094;SDS011;18096;48.142;16.290;2024-03-08T08:11:53;59.77;;;20.20;;
14094;SDS011;18096;48.142;16.290;2024-03-08T08:14:19;42.53;;;17.50;;
14094;SDS011;18096;48.142;16.290;2024-03-08T08:16:46;151.67;;;47.50;;
14094;SDS011;18096;48.142;16.290;2024-03-08T08:19:14;68.40;;;22.10;;
14094;SDS011;18096;48.142;16.290;2024-03-08T08:21:40;36.53;;;16.93;;
14094;SDS011;18096;48.142;16.290;2024-03-08T08:24:06;45.57;;;18.30;;
14094;SDS011;18096;48.142;16.290;2024-03-08T08:26:32;45.80;;;15.60;;
14094;SDS011;18096;48.142;16.290;2024-03-08T08:28:59;53.17;;;20.80;;
14094;SDS011;18096;48.142;16.290;2024-03-08T08:31:25;52.50;;;17.60;;
14094;SDS011;18096;48.142;16.290;2024-03-08T08:33:51;36.90;;;13.63;;
14094;SDS011;18096;48.142;16.290;2024-03-08T08:36:23;77.53;;;19.90;;
14094;SDS011;18096;48.142;16.290;2024-03-08T08:38:51;48.00;;;18.40;;
14094;SDS011;18096;48.142;16.290;2024-03-08T08:41:20;46.70;;;16.80;;
14094;SDS011;18096;48.142;16.290;2024-03-08T08:43:46;48.20;;;17.43;;
14094;SDS011;18096;48.142;16.290;2024-03-08T08:46:16;56.67;;;19.37;;
14094;SDS011;18096;48.142;16.290;2024-03-08T08:48:42;62.50;;;16.77;;
14094;SDS011;18096;48.142;16.290;2024-03-08T08:51:10;45.83;;;17.03;;
14094;SDS011;18096;48.142;16.290;2024-03-08T08:53:42;50.27;;;15.57;;
14094;SDS011;18096;48.142;16.290;2024-03-08T08:56:11;40.90;;;16.87;;
14094;SDS011;18096;48.142;16.290;2024-03-08T08:58:41;45.80;;;17.83;;
14094;SDS011;18096;48.142;16.290;2024-03-08T09:01:07;57.53;;;22.30;;
14094;SDS011;18096;48.142;16.290;2024-03-08T09:03:35;50.67;;;17.40;;
14094;SDS011;18096;48.142;16.290;2024-03-08T09:06:02;63.40;;;19.33;;
14094;SDS011;18096;48.142;16.290;2024-03-08T09:08:29;54.90;;;19.40;;
14094;SDS011;18096;48.142;16.290;2024-03-08T09:10:54;58.97;;;18.47;;
14094;SDS011;18096;48.142;16.290;2024-03-08T09:13:20;45.57;;;17.33;;
14094;SDS011;18096;48.142;16.290;2024-03-08T09:15:46;50.03;;;17.60;;
14094;SDS011;18096;48.142;16.290;2024-03-08T09:18:11;54.17;;;16.80;;
14094;SDS011;18096;48.142;16.290;2024-03-08T09:20:37;48.20;;;16.10;;
14094;SDS011;18096;48.142;16.290;2024-03-08T09:23:03;41.50;;;16.27;;
14094;SDS011;18096;48.142;16.290;2024-03-08T09:25:29;43.87;;;17.17;;
14094;SDS011;18096;48.142;16.290;2024-03-08T09:27:55;54.93;;;15.70;;
14094;SDS011;18096;48.142;16.290;2024-03-08T09:30:20;55.17;;;17.27;;
14094;SDS011;18096;48.142;16.290;2024-03-08T09:32:47;65.73;;;17.73;;
14094;SDS011;18096;48.142;16.290;2024-03-08T09:35:12;59.30;;;19.10;;
14094;SDS011;18096;48.142;16.290;2024-03-08T09:37:38;81.43;;;20.13;;
14094;SDS011;18096;48.142;16.290;2024-03-08T09:40:04;52.50;;;19.97;;
14094;SDS011;18096;48.142;16.290;2024-03-08T09:42:34;82.20;;;21.07;;
14094;SDS011;18096;48.142;16.290;2024-03-08T09:45:04;55.37;;;19.60;;
14094;SDS011;18096;48.142;16.290;2024-03-08T09:47:35;49.03;;;17.70;;
14094;SDS011;18096;48.142;16.290;2024-03-08T09:50:05;42.30;;;15.57;;
14094;SDS011;18096;48.142;16.290;2024-03-08T09:52:41;55.77;;;15.07;;
14094;SDS011;18096;48.142;16.290;2024-03-08T09:55:09;58.37;;;18.77;;
14094;SDS011;18096;48.142;16.290;2024-03-08T09:57:41;49.30;;;15.30;;
14094;SDS011;18096;48.142;16.290;2024-03-08T10:00:31;43.77;;;16.30;;
14094;SDS011;18096;48.142;16.290;2024-03-08T10:03:00;45.33;;;15.83;;
14094;SDS011;18096;48.142;16.290;2024-03-08T10:05:26;54.10;;;17.23;;
14094;SDS011;18096;48.142;16.290;2024-03-08T10:07:52;60.03;;;18.07;;
14094;SDS011;18096;48.142;16.290;2024-03-08T10:10:18;49.80;;;16.73;;
14094;SDS011;18096;48.142;16.290;2024-03-08T10:12:44;46.47;;;16.40;;
14094;SDS011;18096;48.142;16.290;2024-03-08T10:15:11;47.47;;;16.17;;
14094;SDS011;18096;48.142;16.290;2024-03-08T10:17:37;46.47;;;17.17;;
14094;SDS011;18096;48.142;16.290;2024-03-08T10:20:14;30.23;;;13.90;;
14094;SDS011;18096;48.142;16.290;2024-03-08T10:22:43;49.73;;;17.87;;
14094;SDS011;18096;48.142;16.290;2024-03-08T10:25:12;35.97;;;14.70;;
14094;SDS011;18096;48.142;16.290;2024-03-08T10:27:39;45.60;;;14.67;;
14094;SDS011;18096;48.142;16.290;2024-03-08T10:30:12;47.23;;;17.10;;
14094;SDS011;18096;48.142;16.290;2024-03-08T10:32:39;31.23;;;13.33;;
14094;SDS011;18096;48.142;16.290;2024-03-08T10:35:09;37.40;;;14.10;;
14094;SDS011;18096;48.142;16.290;2024-03-08T10:37:40;34.77;;;12.20;;
14094;SDS011;18096;48.142;16.290;2024-03-08T10:40:09;35.23;;;12.47;;
14094;SDS011;18096;48.142;16.290;2024-03-08T10:42:40;26.87;;;11.80;;
14094;SDS011;18096;48.142;16.290;2024-03-08T10:45:26;30.77;;;11.73;;
14094;SDS011;18096;48.142;16.290;2024-03-08T10:50:47;36.63;;;14.90;;
14094;SDS011;18096;48.142;16.290;2024-03-08T10:53:15;25.37;;;10.93;;
14094;SDS011;18096;48.142;16.290;2024-03-08T10:55:43;20.40;;;9.80;;
14094;SDS011;18096;48.142;16.290;2024-03-08T10:58:09;31.37;;;11.00;;
14094;SDS011;18096;48.142;16.290;2024-03-08T11:00:35;27.20;;;11.43;;
14094;SDS011;18096;48.142;16.290;2024-03-08T11:03:02;25.50;;;10.93;;
14094;SDS011;18096;48.142;16.290;2024-03-08T11:05:38;23.63;;;10.60;;
14094;SDS011;18096;48.142;16.290;2024-03-08T11:08:27;21.57;;;10.30;;
14094;SDS011;18096;48.142;16.290;2024-03-08T11:10:52;22.23;;;8.60;;
14094;SDS011;18096;48.142;16.290;2024-03-08T11:16:09;26.77;;;11.23;;
14094;SDS011;18096;48.142;16.290;2024-03-08T11:18:36;16.43;;;7.73;;
14094;SDS011;18096;48.142;16.290;2024-03-08T11:21:07;15.30;;;8.10;;
14094;SDS011;18096;48.142;16.290;2024-03-08T11:23:37;18.90;;;9.03;;
14094;SDS011;18096;48.142;16.290;2024-03-08T11:26:14;21.53;;;8.47;;
14094;SDS011;18096;48.142;16.290;2024-03-08T11:28:46;16.13;;;6.93;;
14094;SDS011;18096;48.142;16.290;2024-03-08T11:33:40;15.27;;;6.70;;
14094;SDS011;18096;48.142;16.290;2024-03-08T11:36:12;13.80;;;6.43;;
14094;SDS011;18096;48.142;16.290;2024-03-08T11:38:46;12.07;;;6.47;;
14094;SDS011;18096;48.142;16.290;2024-03-08T11:41:16;12.70;;;6.13;;
14094;SDS011;18096;48.142;16.290;2024-03-08T11:43:44;36.17;;;8.23;;
14094;SDS011;18096;48.142;16.290;2024-03-08T11:46:11;14.60;;;7.60;;
14094;SDS011;18096;48.142;16.290;2024-03-08T11:48:41;20.77;;;7.93;;
14094;SDS011;18096;48.142;16.290;2024-03-08T11:51:07;18.07;;;7.40;;
14094;SDS011;18096;48.142;16.290;2024-03-08T11:53:33;14.03;;;7.73;;
14094;SDS011;18096;48.142;16.290;2024-03-08T11:56:05;14.33;;;8.00;;
14094;SDS011;18096;48.142;16.290;2024-03-08T11:58:36;14.60;;;6.97;;
14094;SDS011;18096;48.142;16.290;2024-03-08T12:01:07;14.07;;;6.90;;
14094;SDS011;18096;48.142;16.290;2024-03-08T12:03:42;15.93;;;9.27;;
14094;SDS011;18096;48.142;16.290;2024-03-08T12:06:08;17.57;;;6.87;;
14094;SDS011;18096;48.142;16.290;2024-03-08T12:08:37;20.13;;;7.40;;
14094;SDS011;18096;48.142;16.290;2024-03-08T12:11:06;8.77;;;6.17;;
14094;SDS011;18096;48.142;16.290;2024-03-08T12:13:35;13.13;;;5.73;;
14094;SDS011;18096;48.142;16.290;2024-03-08T12:16:03;17.47;;;7.10;;
14094;SDS011;18096;48.142;16.290;2024-03-08T12:18:33;14.87;;;8.00;;
14094;SDS011;18096;48.142;16.290;2024-03-08T12:26:37;17.10;;;8.37;;
14094;SDS011;18096;48.142;16.290;2024-03-08T12:31:59;18.90;;;9.10;;
14094;SDS011;18096;48.142;16.290;2024-03-08T12:34:30;17.47;;;8.13;;
14094;SDS011;18096;48.142;16.290;2024-03-08T12:36:57;21.07;;;9.20;;
14094;SDS011;18096;48.142;16.290;2024-03-08T12:39:23;15.57;;;7.70;;
14094;SDS011;18096;48.142;16.290;2024-03-08T12:41:52;14.77;;;7.67;;
14094;SDS011;18096;48.142;16.290;2024-03-08T12:44:19;16.63;;;7.77;;
14094;SDS011;18096;48.142;16.290;2024-03-08T12:46:46;20.13;;;9.30;;
14094;SDS011;18096;48.142;16.290;2024-03-08T12:49:13;18.60;;;9.70;;
14094;SDS011;18096;48.142;16.290;2024-03-08T12:51:42;18.40;;;7.13;;
14094;SDS011;18096;48.142;16.290;2024-03-08T12:54:09;15.27;;;8.80;;
14094;SDS011;18096;48.142;16.290;2024-03-08T12:56:35;13.37;;;7.67;;
14094;SDS011;18096;48.142;16.290;2024-03-08T12:59:02;16.00;;;6.90;;
14094;SDS011;18096;48.142;16.290;2024-03-08T13:01:33;12.90;;;7.20;;
14094;SDS011;18096;48.142;16.290;2024-03-08T13:03:59;19.33;;;7.57;;
14094;SDS011;18096;48.142;16.290;2024-03-08T13:06:27;13.07;;;7.30;;
14094;SDS011;18096;48.142;16.290;2024-03-08T13:08:53;14.60;;;6.20;;
14094;SDS011;18096;48.142;16.290;2024-03-08T13:11:20;11.60;;;7.50;;
14094;SDS011;18096;48.142;16.290;2024-03-08T13:13:46;17.40;;;7.40;;
14094;SDS011;18096;48.142;16.290;2024-03-08T13:16:12;14.50;;;6.80;;
14094;SDS011;18096;48.142;16.290;2024-03-08T13:18:40;16.80;;;7.53;;
14094;SDS011;18096;48.142;16.290;2024-03-08T13:21:09;10.50;;;7.07;;
14094;SDS011;18096;48.142;16.290;2024-03-08T13:23:36;13.50;;;6.90;;
14094;SDS011;18096;48.142;16.290;2024-03-08T13:26:08;13.50;;;7.70;;
14094;SDS011;18096;48.142;16.290;2024-03-08T13:28:40;14.47;;;7.73;;
14094;SDS011;18096;48.142;16.290;2024-03-08T13:31:10;16.70;;;7.53;;
14094;SDS011;18096;48.142;16.290;2024-03-08T13:33:36;18.00;;;7.57;;
14094;SDS011;18096;48.142;16.290;2024-03-08T13:36:04;14.97;;;7.40;;
14094;SDS011;18096;48.142;16.290;2024-03-08T13:38:31;13.67;;;7.90;;
14094;SDS011;18096;48.142;16.290;2024-03-08T13:41:00;18.07;;;9.00;;
14094;SDS011;18096;48.142;16.290;2024-03-08T13:43:27;16.73;;;9.13;;
14094;SDS011;18096;48.142;16.290;2024-03-08T13:45:53;16.83;;;7.80;;
14094;SDS011;18096;48.142;16.290;2024-03-08T13:48:20;16.23;;;8.80;;
14094;SDS011;18096;48.142;16.290;2024-03-08T13:50:47;16.47;;;6.47;;
14094;SDS011;18096;48.142;16.290;2024-03-08T13:53:14;15.10;;;7.10;;
14094;SDS011;18096;48.142;16.290;2024-03-08T13:55:40;12.40;;;5.90;;
14094;SDS011;18096;48.142;16.290;2024-03-08T13:58:06;14.90;;;6.53;;
14094;SDS011;18096;48.142;16.290;2024-03-08T14:00:34;13.17;;;5.77;;
14094;SDS011;18096;48.142;16.290;2024-03-08T14:03:01;17.20;;;6.30;;
14094;SDS011;18096;48.142;16.290;2024-03-08T14:05:40;14.70;;;6.83;;
14094;SDS011;18096;48.142;16.290;2024-03-08T14:08:07;12.43;;;7.00;;
14094;SDS011;18096;48.142;16.290;2024-03-08T14:10:36;13.83;;;7.43;;
14094;SDS011;18096;48.142;16.290;2024-03-08T14:13:02;16.80;;;6.37;;
14094;SDS011;18096;48.142;16.290;2024-03-08T14:15:32;9.83;;;6.70;;
14094;SDS011;18096;48.142;16.290;2024-03-08T14:18:00;17.60;;;7.03;;
14094;SDS011;18096;48.142;16.290;2024-03-08T14:20:26;16.23;;;7.37;;
14094;SDS011;18096;48.142;16.290;2024-03-08T14:22:53;13.97;;;7.40;;
14094;SDS011;18096;48.142;16.290;2024-03-08T14:25:22;9.67;;;5.70;;
14094;SDS011;18096;48.142;16.290;2024-03-08T14:27:51;10.27;;;6.77;;
14094;SDS011;18096;48.142;16.290;2024-03-08T14:30:23;16.40;;;6.70;;